| time (UTC) | temp F | wind direction | speed MPH | gust MPH | rain 1hr in | rain 24hr in | rain mn in | humidity % | barometer mb |
| 20260504174518 | 67 | 333 | 0.0 | 5.0 | 0.00 | 0.00 | 0.00 | 38 | 1006.3 |
| 20260504174008 | 67 | 298 | 0.0 | 10.0 | 0.00 | 0.00 | 0.00 | 33 | 1006.5 |
| 20260504173508 | 66 | 140 | 0.0 | 10.0 | 0.00 | 0.00 | 0.00 | 36 | 1006.4 |
| 20260504173013 | 66 | 279 | 0.0 | 1.0 | 0.00 | 0.00 | 0.00 | 36 | 1006.4 |
| 20260504172505 | 66 | 46 | 0.0 | 12.0 | 0.00 | 0.00 | 0.00 | 34 | 1006.5 |
| 20260504172008 | 66 | 123 | 0.0 | 14.0 | 0.00 | 0.00 | 0.00 | 36 | 1006.5 |
| 20260504171526 | 66 | 46 | 3.0 | 14.0 | 0.00 | 0.00 | 0.00 | 35 | 1006.5 |
| 20260504171006 | 65 | 150 | 0.0 | 10.0 | 0.00 | 0.00 | 0.00 | 35 | 1006.6 |
| 20260504170512 | 65 | 181 | 0.0 | 12.0 | 0.00 | 0.00 | 0.00 | 38 | 1006.5 |
| 20260504151005 | 62 | 305 | 0.0 | 10.0 | 0.00 | 0.00 | 0.00 | 40 | 1007.3 |
| 20260504150509 | 61 | 241 | 1.0 | 11.0 | 0.00 | 0.00 | 0.00 | 40 | 1007.1 |
| 20260504141002 | 59 | 162 | 0.0 | 13.0 | 0.00 | 0.00 | 0.00 | 45 | 1008.2 |
| 20260504140503 | 58 | 66 | 0.0 | 13.0 | 0.00 | 0.00 | 0.00 | 46 | 1008.1 |
| 20260504130508 | 52 | 187 | 0.0 | 9.0 | 0.00 | 0.00 | 0.00 | 54 | 1008.6 |
| 20260504110504 | 42 | 86 | 0.0 | 0.0 | 0.00 | 0.00 | 0.00 | 68 | 1009.0 |
| 20260504100504 | 41 | 153 | 0.0 | 1.0 | 0.00 | 0.00 | 0.00 | 68 | 1008.7 |
| 20260504082006 | 40 | 94 | 0.0 | 0.0 | 0.00 | 0.00 | 0.00 | 68 | 1008.7 |
| 20260504081530 | 40 | 355 | 0.0 | 0.0 | 0.00 | 0.00 | 0.00 | 63 | 1008.8 |
| 20260504081003 | 39 | 87 | 0.0 | 0.0 | 0.00 | 0.00 | 0.00 | 59 | 1008.8 |
| 20260504080503 | 39 | 89 | 0.0 | 0.0 | 0.00 | 0.00 | 0.00 | 59 | 1008.9 |
| 20260504050506 | 37 | 22 | 0.0 | 0.0 | 0.00 | 0.00 | 0.00 | 69 | 1009.0 |
| 20260504050025 | 37 | 22 | 0.0 | 0.0 | 0.00 | 0.00 | 0.00 | 67 | 1009.0 |
| 20260504045503 | 36 | 22 | 0.0 | 0.0 | 0.00 | 0.00 | 0.00 | 66 | 1009.0 |
| 20260504045005 | 36 | 22 | 0.0 | 0.0 | 0.00 | 0.00 | 0.00 | 68 | 1009.0 |
| 20260504044524 | 36 | 22 | 0.0 | 0.0 | 0.00 | 0.00 | 0.00 | 67 | 1009.1 |
| 20260504044009 | 36 | 22 | 0.0 | 0.0 | 0.00 | 0.00 | 0.00 | 67 | 1009.2 |
| 20260504043505 | 36 | 22 | 0.0 | 0.0 | 0.00 | 0.00 | 0.00 | 66 | 1009.1 |
| 20260504043020 | 35 | 22 | 0.0 | 0.0 | 0.00 | 0.00 | 0.00 | 65 | 1009.1 |
| 20260504042507 | 35 | 22 | 0.0 | 0.0 | 0.00 | 0.00 | 0.00 | 67 | 1009.0 |
| 20260504042004 | 35 | 22 | 0.0 | 0.0 | 0.00 | 0.00 | 0.00 | 66 | 1009.1 |
| 20260504041534 | 35 | 22 | 0.0 | 0.0 | 0.00 | 0.00 | 0.00 | 67 | 1009.0 |
| 20260504041005 | 35 | 22 | 0.0 | 0.0 | 0.00 | 0.00 | 0.00 | 68 | 1009.0 |
| 20260504040502 | 35 | 22 | 0.0 | 0.0 | 0.00 | 0.00 | 0.00 | 68 | 1008.8 |
| 20260504040019 | 35 | 22 | 0.0 | 0.0 | 0.00 | 0.00 | 0.00 | 68 | 1008.9 |
| 20260504035506 | 35 | 22 | 0.0 | 0.0 | 0.00 | 0.00 | 0.00 | 68 | 1009.0 |
| 20260504035006 | 35 | 22 | 0.0 | 0.0 | 0.00 | 0.00 | 0.00 | 68 | 1009.0 |
| 20260504034510 | 35 | 22 | 0.0 | 0.0 | 0.00 | 0.00 | 0.00 | 68 | 1009.0 |
| 20260504034003 | 36 | 22 | 0.0 | 0.0 | 0.00 | 0.00 | 0.00 | 68 | 1008.9 |
| 20260504033506 | 36 | 22 | 0.0 | 0.0 | 0.00 | 0.00 | 0.00 | 68 | 1008.8 |
| 20260504033026 | 35 | 22 | 0.0 | 0.0 | 0.00 | 0.00 | 0.00 | 69 | 1008.9 |
| 20260504032505 | 35 | 22 | 0.0 | 0.0 | 0.00 | 0.00 | 0.00 | 68 | 1009.0 |
| 20260504032006 | 36 | 22 | 0.0 | 0.0 | 0.00 | 0.00 | 0.00 | 68 | 1008.9 |
| 20260504031524 | 35 | 22 | 0.0 | 0.0 | 0.00 | 0.00 | 0.00 | 69 | 1008.8 |
| 20260504031004 | 36 | 22 | 0.0 | 0.0 | 0.00 | 0.00 | 0.00 | 69 | 1008.9 |
| 20260504030503 | 36 | 22 | 0.0 | 0.0 | 0.00 | 0.00 | 0.00 | 69 | 1008.8 |
| 20260504030022 | 36 | 22 | 0.0 | 0.0 | 0.00 | 0.00 | 0.00 | 69 | 1008.8 |
| 20260504025507 | 36 | 22 | 0.0 | 0.0 | 0.00 | 0.00 | 0.00 | 69 | 1008.9 |
| 20260504025005 | 36 | 22 | 0.0 | 0.0 | 0.00 | 0.00 | 0.00 | 69 | 1008.8 |
| 20260504024519 | 36 | 22 | 0.0 | 0.0 | 0.00 | 0.00 | 0.00 | 69 | 1008.7 |
| 20260504024005 | 36 | 22 | 0.0 | 0.0 | 0.00 | 0.00 | 0.00 | 69 | 1008.7 |
| 20260504023507 | 36 | 22 | 0.0 | 0.0 | 0.00 | 0.00 | 0.00 | 69 | 1008.8 |
| 20260504023015 | 36 | 22 | 0.0 | 0.0 | 0.00 | 0.00 | 0.00 | 69 | 1008.8 |
| 20260504022507 | 36 | 22 | 0.0 | 0.0 | 0.00 | 0.00 | 0.00 | 69 | 1009.0 |
| 20260504022009 | 37 | 22 | 0.0 | 0.0 | 0.00 | 0.00 | 0.00 | 69 | 1008.9 |
| 20260504021510 | 37 | 22 | 0.0 | 0.0 | 0.00 | 0.00 | 0.00 | 69 | 1008.9 |
| 20260504021005 | 37 | 22 | 0.0 | 0.0 | 0.00 | 0.00 | 0.00 | 69 | 1008.8 |
| 20260504020506 | 37 | 22 | 0.0 | 0.0 | 0.00 | 0.00 | 0.00 | 69 | 1008.8 |
| 20260504020035 | 37 | 22 | 0.0 | 0.0 | 0.00 | 0.00 | 0.00 | 69 | 1008.8 |
| 20260504015506 | 37 | 22 | 0.0 | 0.0 | 0.00 | 0.00 | 0.00 | 69 | 1008.7 |
| 20260504015007 | 37 | 22 | 0.0 | 0.0 | 0.00 | 0.00 | 0.00 | 69 | 1008.6 |
| 20260504014526 | 37 | 22 | 0.0 | 0.0 | 0.00 | 0.00 | 0.00 | 68 | 1008.6 |
| 20260504014006 | 37 | 124 | 0.0 | 0.0 | 0.00 | 0.00 | 0.00 | 68 | 1008.6 |
| 20260504013511 | 38 | 124 | 0.0 | 0.0 | 0.00 | 0.00 | 0.00 | 68 | 1008.6 |
| 20260504013031 | 38 | 126 | 0.0 | 0.0 | 0.00 | 0.00 | 0.00 | 68 | 1008.5 |
| 20260504012510 | 38 | 126 | 0.0 | 0.0 | 0.00 | 0.00 | 0.00 | 68 | 1008.5 |
| 20260504012004 | 38 | 126 | 0.0 | 0.0 | 0.00 | 0.00 | 0.00 | 68 | 1008.5 |
| 20260504011520 | 38 | 126 | 0.0 | 0.0 | 0.00 | 0.00 | 0.00 | 68 | 1008.4 |
| 20260504011006 | 38 | 126 | 0.0 | 0.0 | 0.00 | 0.00 | 0.00 | 68 | 1008.3 |
| 20260504010512 | 39 | 126 | 0.0 | 0.0 | 0.00 | 0.00 | 0.00 | 67 | 1008.2 |
| 20260504010015 | 39 | 126 | 0.0 | 0.0 | 0.00 | 0.00 | 0.00 | 67 | 1008.2 |
| 20260504005507 | 39 | 126 | 0.0 | 0.0 | 0.00 | 0.00 | 0.00 | 66 | 1008.0 |
| 20260504005008 | 39 | 126 | 0.0 | 0.0 | 0.00 | 0.00 | 0.00 | 66 | 1008.0 |
| 20260504004515 | 40 | 126 | 0.0 | 0.0 | 0.00 | 0.00 | 0.00 | 66 | 1007.9 |
| 20260504004007 | 40 | 126 | 0.0 | 0.0 | 0.00 | 0.00 | 0.00 | 65 | 1007.8 |
| 20260504003510 | 41 | 126 | 0.0 | 0.0 | 0.00 | 0.00 | 0.00 | 64 | 1007.9 |
| 20260504003028 | 41 | 126 | 0.0 | 0.0 | 0.00 | 0.00 | 0.00 | 62 | 1007.9 |
| 20260504002505 | 42 | 126 | 0.0 | 0.0 | 0.00 | 0.00 | 0.00 | 62 | 1007.8 |
| 20260504002008 | 42 | 126 | 0.0 | 0.0 | 0.00 | 0.00 | 0.00 | 62 | 1007.7 |
| 20260504001534 | 43 | 126 | 0.0 | 0.0 | 0.00 | 0.00 | 0.00 | 61 | 1007.7 |
| 20260504001004 | 44 | 126 | 0.0 | 0.0 | 0.00 | 0.00 | 0.00 | 57 | 1007.6 |
| 20260504000508 | 44 | 126 | 0.0 | 0.0 | 0.00 | 0.00 | 0.00 | 54 | 1007.6 |
| 20260504000025 | 44 | 126 | 0.0 | 0.0 | 0.00 | 0.00 | 0.00 | 54 | 1007.5 |
| 20260503235506 | 45 | 126 | 0.0 | 0.0 | 0.00 | 0.00 | 0.00 | 53 | 1007.5 |
| 20260503235003 | 45 | 126 | 0.0 | 0.0 | 0.00 | 0.00 | 0.00 | 51 | 1007.4 |
| 20260503234522 | 45 | 126 | 0.0 | 0.0 | 0.00 | 0.00 | 0.00 | 51 | 1007.4 |
| 20260503234007 | 46 | 126 | 0.0 | 0.0 | 0.00 | 0.00 | 0.00 | 50 | 1007.4 |
| 20260503233510 | 46 | 126 | 0.0 | 0.0 | 0.00 | 0.00 | 0.00 | 51 | 1007.3 |
| 20260503233020 | 46 | 126 | 0.0 | 0.0 | 0.00 | 0.00 | 0.00 | 49 | 1007.3 |
| 20260503232512 | 47 | 293 | 0.0 | 0.0 | 0.00 | 0.00 | 0.00 | 48 | 1007.3 |
| 20260503232011 | 47 | 240 | 0.0 | 0.0 | 0.00 | 0.00 | 0.00 | 47 | 1007.3 |
| 20260503231513 | 47 | 262 | 0.0 | 1.0 | 0.00 | 0.00 | 0.00 | 50 | 1007.2 |
| 20260503231007 | 47 | 299 | 0.0 | 1.0 | 0.00 | 0.00 | 0.00 | 49 | 1007.2 |
| 20260503230511 | 47 | 252 | 0.0 | 1.0 | 0.00 | 0.01 | 0.00 | 49 | 1007.1 |
| 20260503230037 | 47 | 276 | 0.0 | 0.0 | 0.00 | 0.01 | 0.00 | 48 | 1007.1 |
| 20260503225504 | 47 | 178 | 0.0 | 0.0 | 0.00 | 0.01 | 0.00 | 47 | 1007.1 |
| 20260503225007 | 47 | 59 | 0.0 | 0.0 | 0.00 | 0.01 | 0.00 | 48 | 1007.1 |
| 20260503224527 | 47 | 267 | 0.0 | 0.0 | 0.00 | 0.01 | 0.00 | 48 | 1007.1 |
| 20260503224004 | 47 | 13 | 0.0 | 0.0 | 0.00 | 0.01 | 0.00 | 48 | 1007.1 |
| 20260503223511 | 47 | 239 | 0.0 | 0.0 | 0.00 | 0.01 | 0.00 | 48 | 1006.9 |
| 20260503223025 | 47 | 136 | 0.0 | 5.0 | 0.00 | 0.02 | 0.00 | 47 | 1006.9 |
| 20260503222503 | 47 | 123 | 0.0 | 5.0 | 0.00 | 0.02 | 0.00 | 47 | 1007.0 |
| 20260503222007 | 47 | 261 | 0.0 | 5.0 | 0.00 | 0.03 | 0.00 | 46 | 1006.9 |
| 20260503221504 | 47 | 256 | 0.0 | 5.0 | 0.00 | 0.04 | 0.00 | 46 | 1006.8 |
| 20260503221004 | 47 | 17 | 0.0 | 0.0 | 0.00 | 0.06 | 0.00 | 48 | 1006.8 |
| 20260503220506 | 47 | 289 | 0.0 | 11.0 | 0.00 | 0.06 | 0.00 | 46 | 1006.8 |
| 20260503220004 | 48 | 360 | 0.0 | 11.0 | 0.00 | 0.06 | 0.00 | 45 | 1006.7 |
| 20260503215503 | 48 | 304 | 1.0 | 11.0 | 0.00 | 0.06 | 0.00 | 44 | 1006.7 |
| 20260503215004 | 48 | 300 | 0.0 | 0.0 | 0.00 | 0.06 | 0.00 | 44 | 1006.6 |
| 20260503214534 | 49 | 274 | 0.0 | 1.0 | 0.00 | 0.06 | 0.00 | 45 | 1006.6 |
| 20260503214007 | 49 | 15 | 0.0 | 6.0 | 0.00 | 0.06 | 0.00 | 45 | 1006.5 |
| 20260503213504 | 49 | 286 | 0.0 | 7.0 | 0.00 | 0.06 | 0.00 | 44 | 1006.5 |
| 20260503213015 | 50 | 146 | 0.0 | 8.0 | 0.00 | 0.06 | 0.00 | 42 | 1006.3 |
| 20260503212508 | 50 | 115 | 0.0 | 8.0 | 0.00 | 0.06 | 0.00 | 45 | 1006.2 |
| 20260503212002 | 49 | 352 | 0.0 | 8.0 | 0.00 | 0.06 | 0.00 | 46 | 1006.1 |
| 20260503211511 | 49 | 263 | 0.0 | 0.0 | 0.00 | 0.06 | 0.00 | 46 | 1006.0 |
| 20260503211013 | 49 | 285 | 0.0 | 0.0 | 0.00 | 0.06 | 0.00 | 45 | 1006.1 |
| 20260503210503 | 49 | 205 | 0.0 | 0.0 | 0.00 | 0.06 | 0.00 | 45 | 1006.1 |
| 20260503210007 | 49 | 109 | 0.0 | 0.0 | 0.00 | 0.08 | 0.00 | 46 | 1006.0 |
| 20260503205506 | 49 | 252 | 0.0 | 1.0 | 0.00 | 0.09 | 0.00 | 45 | 1006.0 |
| 20260503205008 | 49 | 182 | 0.0 | 2.0 | 0.00 | 0.10 | 0.00 | 44 | 1005.9 |
| 20260503204506 | 49 | 294 | 0.0 | 2.0 | 0.00 | 0.10 | 0.00 | 46 | 1005.9 |
| 20260503204005 | 49 | 269 | 0.0 | 1.0 | 0.00 | 0.12 | 0.00 | 45 | 1005.8 |
| 20260503203506 | 48 | 309 | 0.0 | 1.0 | 0.00 | 0.12 | 0.00 | 45 | 1005.8 |
| 20260503203009 | 48 | 294 | 0.0 | 4.0 | 0.00 | 0.12 | 0.00 | 46 | 1005.9 |
| 20260503202503 | 48 | 355 | 0.0 | 4.0 | 0.00 | 0.12 | 0.00 | 45 | 1005.9 |
| 20260503202006 | 48 | 65 | 0.0 | 10.0 | 0.00 | 0.12 | 0.00 | 45 | 1005.8 |
| 20260503201520 | 48 | 37 | 0.0 | 10.0 | 0.00 | 0.12 | 0.00 | 44 | 1005.9 |
| 20260503201003 | 49 | 51 | 0.0 | 2.0 | 0.00 | 0.12 | 0.00 | 46 | 1005.8 |
| 20260503200504 | 49 | 192 | 0.0 | 1.0 | 0.00 | 0.12 | 0.00 | 47 | 1005.8 |
| 20260503200017 | 49 | 192 | 0.0 | 6.0 | 0.00 | 0.12 | 0.00 | 45 | 1005.8 |
| 20260503195508 | 49 | 180 | 0.0 | 13.0 | 0.00 | 0.12 | 0.00 | 47 | 1005.7 |
| 20260503195008 | 49 | 257 | 0.0 | 13.0 | 0.00 | 0.12 | 0.00 | 46 | 1005.8 |
| 20260503194514 | 49 | 261 | 0.0 | 10.0 | 0.00 | 0.12 | 0.00 | 47 | 1005.7 |
| 20260503194009 | 49 | 193 | 0.0 | 10.0 | 0.00 | 0.12 | 0.00 | 45 | 1005.6 |
| 20260503193506 | 49 | 229 | 1.0 | 10.0 | 0.00 | 0.12 | 0.00 | 44 | 1005.6 |
| 20260503193011 | 49 | 311 | 0.0 | 5.0 | 0.00 | 0.12 | 0.00 | 44 | 1005.5 |
| 20260503192504 | 49 | 63 | 0.0 | 8.0 | 0.00 | 0.12 | 0.00 | 42 | 1005.6 |
| 20260503192007 | 49 | 292 | 0.0 | 8.0 | 0.00 | 0.12 | 0.00 | 44 | 1005.5 |
| 20260503191515 | 49 | 259 | 0.0 | 0.0 | 0.00 | 0.12 | 0.00 | 43 | 1005.5 |
| 20260503191004 | 49 | 212 | 0.0 | 9.0 | 0.00 | 0.12 | 0.00 | 47 | 1005.6 |
| 20260503190508 | 49 | 211 | 0.0 | 9.0 | 0.00 | 0.12 | 0.00 | 45 | 1005.6 |
| 20260503190009 | 49 | 289 | 0.0 | 0.0 | 0.00 | 0.12 | 0.00 | 48 | 1005.7 |
| 20260503185503 | 49 | 84 | 0.0 | 0.0 | 0.00 | 0.12 | 0.00 | 47 | 1005.6 |
| 20260503185006 | 49 | 157 | 0.0 | 10.0 | 0.00 | 0.12 | 0.00 | 45 | 1005.6 |
| 20260503184521 | 49 | 17 | 0.0 | 10.0 | 0.00 | 0.12 | 0.00 | 46 | 1005.7 |
| 20260503184003 | 49 | 225 | 0.0 | 11.0 | 0.00 | 0.12 | 0.00 | 46 | 1005.6 |
| 20260503183507 | 49 | 302 | 0.0 | 11.0 | 0.00 | 0.12 | 0.00 | 47 | 1005.6 |
| 20260503183021 | 48 | 30 | 0.0 | 0.0 | 0.00 | 0.12 | 0.00 | 47 | 1005.6 |
| 20260503182509 | 48 | 29 | 0.0 | 7.0 | 0.00 | 0.12 | 0.00 | 49 | 1005.7 |
| 20260503182004 | 48 | 288 | 1.0 | 7.0 | 0.00 | 0.12 | 0.00 | 47 | 1005.7 |
| 20260503181515 | 48 | 267 | 0.0 | 4.0 | 0.00 | 0.12 | 0.00 | 49 | 1005.6 |
| 20260503181008 | 49 | 72 | 0.0 | 1.0 | 0.00 | 0.12 | 0.00 | 47 | 1005.7 |
| 20260503180504 | 49 | 66 | 0.0 | 1.0 | 0.00 | 0.12 | 0.00 | 47 | 1005.7 |
| 20260503180010 | 50 | 205 | 0.0 | 10.0 | 0.00 | 0.12 | 0.00 | 47 | 1005.6 |
| 20260503175507 | 51 | 271 | 0.0 | 10.0 | 0.00 | 0.12 | 0.00 | 43 | 1005.5 |
| 20260503175006 | 51 | 115 | 0.0 | 6.0 | 0.00 | 0.12 | 0.00 | 53 | 1005.5 |